Search for airport 
image banner adimage banner ad
image banner ad

WBKT - Kudat

Located in Kudat, Malaysia

ICAO - WBKT, IATA - KUD

Data provided by Airmate  

General information

Coordinates: N6°55'25" E116°50'16"
Elevation is 21 feet MSL.
 
Rated:
View ratings: [VIEW]


View others Airports in Sabah

Operational data

Open for public use
Current time UTC:
Current local time:
Weather
METAR: WBKT 200900Z 34006KT 300V030 5000 HZ FEW014 BKN270 30/23 Q1008
View NOTAMs / SUP AIP / TFR affecting this airport [VIEW]
Communications frequencies: [VIEW]

Runways:

RWY identifierQFULength (ft)Width (ft)SurfaceLDA (ft)
0441°239259
22221°239259

Airport contact information

Address: Kudat Malaysia

Satellite view of WBKT